createdAt,value
2022-07-26T00:01:48.612Z,8.77
2022-07-26T00:04:16.025Z,8.43
2022-07-26T00:06:43.496Z,8.27
2022-07-26T00:09:11.215Z,8.27
2022-07-26T00:11:38.800Z,8.40
2022-07-26T00:14:07.781Z,8.67
2022-07-26T00:16:36.192Z,9.27
2022-07-26T00:19:05.328Z,8.87
2022-07-26T00:21:34.679Z,8.53
2022-07-26T00:24:02.332Z,8.80
2022-07-26T00:26:29.792Z,8.97
2022-07-26T00:28:57.577Z,8.73
2022-07-26T00:31:24.888Z,8.73
2022-07-26T00:33:52.264Z,9.13
2022-07-26T00:36:19.588Z,8.40
2022-07-26T00:38:46.904Z,9.13
2022-07-26T00:41:14.618Z,9.10
2022-07-26T00:43:59.951Z,8.77
2022-07-26T00:46:27.768Z,8.20
2022-07-26T00:48:55.321Z,8.87
2022-07-26T00:51:22.881Z,8.20
2022-07-26T00:53:50.780Z,8.30
2022-07-26T00:56:18.311Z,8.30
2022-07-26T00:58:45.759Z,8.77
2022-07-26T01:01:13.305Z,8.67
2022-07-26T01:03:41.571Z,8.50
2022-07-26T01:06:09.209Z,8.60
2022-07-26T01:08:36.837Z,8.77
2022-07-26T01:11:04.279Z,9.87
2022-07-26T01:13:35.045Z,7.83
2022-07-26T01:16:04.249Z,8.03
2022-07-26T01:18:31.653Z,7.70
2022-07-26T01:21:02.275Z,7.17
2022-07-26T01:23:42.330Z,6.50
2022-07-26T01:26:10.111Z,6.60
2022-07-26T01:28:39.150Z,6.20
2022-07-26T01:31:08.450Z,5.73
2022-07-26T01:33:36.000Z,5.60
2022-07-26T01:36:03.310Z,5.60
2022-07-26T01:38:30.616Z,6.10
2022-07-26T01:40:58.196Z,5.23
2022-07-26T01:43:25.591Z,5.67
2022-07-26T01:45:55.267Z,5.33
2022-07-26T01:48:22.915Z,6.17
2022-07-26T01:50:50.405Z,5.30
2022-07-26T01:53:17.936Z,5.07
2022-07-26T01:55:45.245Z,4.70
2022-07-26T01:58:12.932Z,5.63
2022-07-26T02:00:40.694Z,4.57
2022-07-26T02:03:08.069Z,4.53
2022-07-26T02:05:35.506Z,4.40
2022-07-26T02:08:02.883Z,5.00
2022-07-26T02:10:50.266Z,4.20
2022-07-26T02:13:17.868Z,4.57
2022-07-26T02:15:45.329Z,4.23
2022-07-26T02:18:12.828Z,3.97
2022-07-26T02:20:40.519Z,4.57
2022-07-26T02:23:08.773Z,4.30
2022-07-26T02:25:36.214Z,4.00
2022-07-26T02:28:03.756Z,4.20
2022-07-26T02:30:31.052Z,4.43
2022-07-26T02:32:58.448Z,4.37
2022-07-26T02:35:25.771Z,4.23
2022-07-26T02:37:53.051Z,4.00
2022-07-26T02:40:20.683Z,4.63
2022-07-26T02:42:48.055Z,3.83
2022-07-26T02:45:15.435Z,4.03
2022-07-26T02:47:50.441Z,4.10
2022-07-26T02:50:23.179Z,3.57
2022-07-26T02:52:51.645Z,3.70
2022-07-26T02:55:21.331Z,3.30
2022-07-26T02:57:49.116Z,3.50
2022-07-26T03:00:18.963Z,3.73
2022-07-26T03:02:49.157Z,3.40
2022-07-26T03:05:17.345Z,3.50
2022-07-26T03:07:45.047Z,3.33
2022-07-26T03:10:12.607Z,3.33
2022-07-26T03:12:39.932Z,3.80
2022-07-26T03:15:08.995Z,3.90
2022-07-26T03:17:36.674Z,3.23
2022-07-26T03:20:05.632Z,2.70
2022-07-26T03:22:33.028Z,2.90
2022-07-26T03:25:00.516Z,2.80
2022-07-26T03:27:28.137Z,3.00
2022-07-26T03:29:55.428Z,3.00
2022-07-26T03:32:22.773Z,3.20
2022-07-26T03:34:50.140Z,3.03
2022-07-26T03:37:17.940Z,2.73
2022-07-26T03:39:45.633Z,3.00
2022-07-26T03:42:13.271Z,3.10
2022-07-26T03:44:40.557Z,2.80
2022-07-26T03:47:07.991Z,2.70
2022-07-26T03:49:35.374Z,3.17
2022-07-26T03:52:02.788Z,3.30
2022-07-26T03:54:30.288Z,3.47
2022-07-26T03:56:57.739Z,3.13
2022-07-26T03:59:25.562Z,3.40
2022-07-26T04:01:53.109Z,3.20
2022-07-26T04:04:25.365Z,3.80
2022-07-26T04:06:53.936Z,3.23
2022-07-26T04:09:21.189Z,3.30
2022-07-26T04:11:49.039Z,3.17
2022-07-26T04:14:16.378Z,3.33
2022-07-26T04:16:44.132Z,3.27
2022-07-26T04:19:11.471Z,3.03
2022-07-26T04:21:38.921Z,3.00
2022-07-26T04:24:07.100Z,3.50
2022-07-26T04:26:34.636Z,3.30
2022-07-26T04:29:02.135Z,2.97
2022-07-26T04:31:29.566Z,2.87
2022-07-26T04:34:04.043Z,2.80
2022-07-26T04:36:31.388Z,2.80
2022-07-26T04:38:58.664Z,2.80
2022-07-26T04:41:26.360Z,2.77
2022-07-26T04:43:53.647Z,3.13
2022-07-26T04:46:21.362Z,2.80
2022-07-26T04:48:48.866Z,3.03
2022-07-26T04:51:16.549Z,2.53
2022-07-26T04:53:43.801Z,3.00
2022-07-26T04:56:11.092Z,3.07
2022-07-26T04:58:38.360Z,3.00
2022-07-26T05:01:10.426Z,3.37
2022-07-26T05:03:39.069Z,3.27
2022-07-26T05:06:06.902Z,2.87
2022-07-26T05:08:34.523Z,3.13
2022-07-26T05:11:02.163Z,2.97
2022-07-26T05:13:30.930Z,3.13
2022-07-26T05:15:59.966Z,2.90
2022-07-26T05:18:29.399Z,3.07
2022-07-26T05:20:59.043Z,3.40
2022-07-26T05:23:26.304Z,3.17
2022-07-26T05:25:53.705Z,3.57
2022-07-26T05:28:20.998Z,3.30
2022-07-26T05:30:48.427Z,3.33
2022-07-26T05:33:16.633Z,3.43
2022-07-26T05:35:44.210Z,3.30
2022-07-26T05:38:11.615Z,3.43
2022-07-26T05:40:39.072Z,3.43
2022-07-26T05:43:06.653Z,3.37
2022-07-26T05:45:34.002Z,3.57
2022-07-26T05:48:01.300Z,3.40
2022-07-26T05:50:28.904Z,3.53
2022-07-26T05:52:56.323Z,3.63
2022-07-26T05:55:23.617Z,3.40
2022-07-26T05:57:50.938Z,3.90
2022-07-26T06:00:18.958Z,3.87
2022-07-26T06:02:46.358Z,4.30
2022-07-26T06:05:15.736Z,3.80
2022-07-26T06:07:43.403Z,3.30
2022-07-26T06:10:10.900Z,3.70
2022-07-26T06:12:38.356Z,3.53
2022-07-26T06:15:14.907Z,3.63
2022-07-26T06:17:43.555Z,3.67
2022-07-26T06:20:11.431Z,3.60
2022-07-26T06:22:38.754Z,3.07
2022-07-26T06:25:07.071Z,3.60
2022-07-26T06:27:34.456Z,3.67
2022-07-26T06:30:01.986Z,3.03
2022-07-26T06:32:29.626Z,3.57
2022-07-26T06:34:56.937Z,3.73
2022-07-26T06:37:24.211Z,3.63
2022-07-26T06:39:52.127Z,3.37
2022-07-26T06:42:19.477Z,3.50
2022-07-26T06:44:46.767Z,3.30
2022-07-26T06:47:14.238Z,3.00
2022-07-26T06:49:41.632Z,3.17
2022-07-26T06:52:08.939Z,3.40
2022-07-26T06:54:36.228Z,3.10
2022-07-26T06:57:03.780Z,2.97
2022-07-26T06:59:31.103Z,3.27
2022-07-26T07:02:00.506Z,2.63
2022-07-26T07:04:30.143Z,2.70
2022-07-26T07:07:02.355Z,2.87
2022-07-26T07:09:33.574Z,3.03
2022-07-26T07:12:10.056Z,3.13
2022-07-26T07:14:38.722Z,3.00
2022-07-26T07:17:13.045Z,2.63
2022-07-26T07:19:41.879Z,2.80
2022-07-26T07:22:12.228Z,3.13
2022-07-26T07:24:41.149Z,2.70
2022-07-26T07:27:09.167Z,2.80
2022-07-26T07:29:41.476Z,2.53
2022-07-26T07:32:18.264Z,2.50
2022-07-26T07:34:48.548Z,2.77
2022-07-26T07:37:17.085Z,2.67
2022-07-26T07:39:50.354Z,2.30
2022-07-26T07:42:19.258Z,2.40
2022-07-26T07:44:47.438Z,2.37
2022-07-26T07:47:14.935Z,2.50
2022-07-26T07:49:42.784Z,2.67
2022-07-26T07:52:10.179Z,2.40
2022-07-26T07:54:37.621Z,2.67
2022-07-26T07:57:05.303Z,2.30
2022-07-26T07:59:32.759Z,2.60
2022-07-26T08:02:06.901Z,2.40
2022-07-26T08:04:34.600Z,2.67
2022-07-26T08:07:02.432Z,2.63
2022-07-26T08:09:29.761Z,2.63
2022-07-26T08:12:01.366Z,2.27
2022-07-26T08:14:30.160Z,2.33
2022-07-26T08:16:57.662Z,2.83
2022-07-26T08:19:26.160Z,2.70
2022-07-26T08:22:09.449Z,2.97
2022-07-26T08:24:36.868Z,2.37
2022-07-26T08:27:04.609Z,2.80
2022-07-26T08:29:31.968Z,2.63
2022-07-26T08:32:00.662Z,2.40
2022-07-26T08:34:28.044Z,2.63
2022-07-26T08:37:15.989Z,2.33
2022-07-26T08:39:42.663Z,2.60
2022-07-26T08:42:17.103Z,2.60
2022-07-26T08:44:50.936Z,2.90
2022-07-26T08:47:35.356Z,2.30
2022-07-26T08:50:08.354Z,2.90
2022-07-26T08:52:38.166Z,2.60
2022-07-26T08:55:05.809Z,2.70
2022-07-26T08:57:33.111Z,2.73
2022-07-26T09:00:23.654Z,2.90
2022-07-26T09:02:52.936Z,2.60
2022-07-26T09:05:26.965Z,2.50
2022-07-26T09:07:54.426Z,2.67
2022-07-26T09:10:21.847Z,2.30
2022-07-26T09:12:57.829Z,2.47
2022-07-26T09:15:27.227Z,2.33
2022-07-26T09:17:57.434Z,2.50
2022-07-26T09:20:27.884Z,2.63
2022-07-26T09:23:03.523Z,2.60
2022-07-26T09:25:37.797Z,2.53
2022-07-26T09:28:26.346Z,2.40
2022-07-26T09:30:55.802Z,2.70
2022-07-26T09:33:23.660Z,2.77
2022-07-26T09:36:06.845Z,2.93
2022-07-26T09:38:51.595Z,2.70
2022-07-26T09:41:29.807Z,2.90
2022-07-26T09:44:00.524Z,2.47
2022-07-26T09:46:29.882Z,2.33
2022-07-26T09:49:10.432Z,2.27
2022-07-26T09:51:44.313Z,2.70
2022-07-26T09:54:13.258Z,2.73
2022-07-26T09:56:45.202Z,2.97
2022-07-26T09:59:18.072Z,2.70
2022-07-26T10:01:46.076Z,2.80
2022-07-26T10:04:14.693Z,2.77
2022-07-26T10:06:42.684Z,3.00
2022-07-26T10:09:10.650Z,2.90
2022-07-26T10:11:50.331Z,2.60
2022-07-26T10:14:32.966Z,2.50
2022-07-26T10:17:01.817Z,3.00
2022-07-26T10:19:45.804Z,2.93
2022-07-26T10:22:26.201Z,3.40
2022-07-26T10:25:17.841Z,2.80
2022-07-26T10:27:50.811Z,3.30
2022-07-26T10:30:18.279Z,3.10
2022-07-26T10:32:52.147Z,3.00
2022-07-26T10:35:34.515Z,2.97
2022-07-26T10:38:04.617Z,3.07
2022-07-26T10:40:32.132Z,3.30
2022-07-26T10:46:19.087Z,2.63
2022-07-26T10:49:03.545Z,2.87
2022-07-26T10:51:34.033Z,2.83
2022-07-26T10:54:06.447Z,3.40
2022-07-26T10:56:34.355Z,3.00
2022-07-26T10:59:02.497Z,3.23
2022-07-26T11:01:37.575Z,3.00
2022-07-26T11:04:06.866Z,3.33
2022-07-26T11:06:34.321Z,3.33
2022-07-26T11:09:12.702Z,3.53
2022-07-26T11:11:46.434Z,3.60
2022-07-26T11:14:18.101Z,3.37
2022-07-26T11:16:48.162Z,3.60
2022-07-26T11:19:26.167Z,3.80
2022-07-26T11:21:59.318Z,3.40
2022-07-26T11:24:27.343Z,4.07
2022-07-26T11:26:55.000Z,4.10
2022-07-26T11:29:38.923Z,4.00
2022-07-26T11:32:22.615Z,3.97
2022-07-26T11:35:04.257Z,4.00
2022-07-26T11:37:32.268Z,3.90
2022-07-26T11:39:59.929Z,3.93
2022-07-26T11:42:28.811Z,4.00
2022-07-26T11:44:56.197Z,4.10
2022-07-26T11:47:24.511Z,4.30
2022-07-26T11:52:41.433Z,4.73
2022-07-26T11:55:09.272Z,4.30
2022-07-26T11:57:36.935Z,4.17
2022-07-26T12:00:05.657Z,3.60
2022-07-26T12:02:39.046Z,4.10
2022-07-26T12:05:22.199Z,3.90
2022-07-26T12:08:03.043Z,3.67
2022-07-26T12:10:30.835Z,3.83
2022-07-26T12:13:27.768Z,3.97
2022-07-26T12:16:07.253Z,4.00
2022-07-26T12:18:36.744Z,4.20
2022-07-26T12:21:07.996Z,4.00
2022-07-26T12:23:46.205Z,4.20
2022-07-26T12:26:21.064Z,3.77
2022-07-26T12:28:48.373Z,3.50
2022-07-26T12:31:30.601Z,3.70
2022-07-26T12:33:58.732Z,4.10
2022-07-26T12:36:27.922Z,3.80
2022-07-26T12:38:58.459Z,4.23
2022-07-26T12:41:39.699Z,3.97
2022-07-26T12:44:11.614Z,3.57
2022-07-26T12:46:40.080Z,4.00
2022-07-26T12:49:07.659Z,4.13
2022-07-26T12:51:35.022Z,5.00
2022-07-26T12:54:03.680Z,4.30
2022-07-26T12:56:31.085Z,4.30
2022-07-26T12:59:01.767Z,4.80
2022-07-26T13:01:30.538Z,5.37
2022-07-26T13:03:58.415Z,5.10
2022-07-26T13:06:25.960Z,5.50
2022-07-26T13:08:53.861Z,5.60
2022-07-26T13:11:21.267Z,6.43
2022-07-26T13:13:49.402Z,7.60
2022-07-26T13:16:17.045Z,7.70
2022-07-26T13:18:44.511Z,8.33
2022-07-26T13:21:11.764Z,8.80
2022-07-26T13:23:39.429Z,9.57
2022-07-26T13:26:09.239Z,11.40
2022-07-26T13:28:40.033Z,13.90
2022-07-26T13:31:07.539Z,16.80
2022-07-26T13:33:35.082Z,17.90
2022-07-26T13:36:02.553Z,19.30
2022-07-26T13:38:33.622Z,20.03
2022-07-26T13:41:04.869Z,19.10
2022-07-26T13:43:32.692Z,18.17
2022-07-26T13:46:00.192Z,17.83
2022-07-26T13:48:28.435Z,18.53
2022-07-26T13:50:57.479Z,19.00
2022-07-26T13:53:25.530Z,21.00
2022-07-26T13:55:53.380Z,21.60
2022-07-26T13:58:21.553Z,21.77
2022-07-26T14:00:49.386Z,22.20
2022-07-26T14:03:16.952Z,21.07
2022-07-26T14:05:44.689Z,19.03
2022-07-26T14:08:12.368Z,20.50
2022-07-26T14:10:40.735Z,19.80
2022-07-26T14:13:09.248Z,22.10
2022-07-26T14:15:36.703Z,20.30
2022-07-26T14:18:04.905Z,20.80
2022-07-26T14:20:32.572Z,19.90
2022-07-26T14:23:00.640Z,19.87
2022-07-26T14:25:28.391Z,21.50
2022-07-26T14:27:56.144Z,20.77
2022-07-26T14:30:23.933Z,20.23
2022-07-26T14:32:51.425Z,21.63
2022-07-26T14:35:18.967Z,20.67
2022-07-26T14:37:46.488Z,19.53
2022-07-26T14:40:17.454Z,21.83
2022-07-26T14:42:45.937Z,20.80
2022-07-26T14:45:14.508Z,20.80
2022-07-26T14:47:42.693Z,21.47
2022-07-26T14:50:11.525Z,21.03
2022-07-26T14:52:41.159Z,17.73
2022-07-26T14:55:09.338Z,17.33
2022-07-26T14:57:39.575Z,18.00
2022-07-26T15:00:10.580Z,15.90
2022-07-26T15:02:43.689Z,16.03
2022-07-26T15:05:12.233Z,16.70
2022-07-26T15:07:41.115Z,16.60
2022-07-26T15:10:10.789Z,17.43
2022-07-26T15:12:39.017Z,17.17
2022-07-26T15:15:07.710Z,17.07
2022-07-26T15:17:35.748Z,19.03
2022-07-26T15:20:05.216Z,18.87
2022-07-26T15:22:32.554Z,18.63
2022-07-26T15:24:59.877Z,18.60
2022-07-26T15:27:27.235Z,18.83
2022-07-26T15:29:58.219Z,19.23
2022-07-26T15:32:30.175Z,16.73
2022-07-26T15:34:57.656Z,13.83
2022-07-26T15:37:25.242Z,11.60
2022-07-26T15:39:52.757Z,10.67
2022-07-26T15:42:21.509Z,9.37
2022-07-26T15:44:51.956Z,10.37
2022-07-26T15:47:51.385Z,10.10
2022-07-26T15:50:09.062Z,10.07
2022-07-26T15:52:38.562Z,10.73
2022-07-26T15:55:07.943Z,10.93
2022-07-26T15:57:36.014Z,10.70
2022-07-26T16:00:11.485Z,10.43
2022-07-26T16:02:40.381Z,10.77
2022-07-26T16:05:08.835Z,10.90
2022-07-26T16:07:36.259Z,10.93
2022-07-26T16:10:04.981Z,11.30
2022-07-26T16:12:33.191Z,11.73
2022-07-26T16:15:00.919Z,10.40
2022-07-26T16:17:28.572Z,10.20
2022-07-26T16:19:55.884Z,11.03
2022-07-26T16:22:23.420Z,10.97
2022-07-26T16:24:50.748Z,10.63
2022-07-26T16:27:18.476Z,10.43
2022-07-26T16:29:50.326Z,10.00
2022-07-26T16:32:21.424Z,10.50
2022-07-26T16:34:48.908Z,10.37
2022-07-26T16:37:16.526Z,9.43
2022-07-26T16:39:43.811Z,9.60
2022-07-26T16:42:11.473Z,9.70
2022-07-26T16:44:39.323Z,10.20
2022-07-26T16:47:06.733Z,9.83
2022-07-26T16:49:34.178Z,10.13
2022-07-26T16:52:01.788Z,10.40
2022-07-26T16:54:29.199Z,10.03
2022-07-26T16:56:56.490Z,10.57
2022-07-26T16:59:23.906Z,10.03
2022-07-26T17:01:51.646Z,9.77
2022-07-26T17:04:19.047Z,10.07
2022-07-26T17:07:07.789Z,10.07
2022-07-26T17:09:33.796Z,10.73
2022-07-26T17:12:06.072Z,10.20
2022-07-26T17:14:33.990Z,9.27
2022-07-26T17:17:01.290Z,10.50
2022-07-26T17:19:28.591Z,11.00
2022-07-26T17:21:56.141Z,10.73
2022-07-26T17:24:23.528Z,9.97
2022-07-26T17:26:50.964Z,10.23
2022-07-26T17:29:18.496Z,10.47
2022-07-26T17:31:46.132Z,9.73
2022-07-26T17:34:13.428Z,9.03
2022-07-26T17:36:43.023Z,10.03
2022-07-26T17:39:15.066Z,9.33
2022-07-26T17:41:48.970Z,10.37
2022-07-26T17:44:16.545Z,10.40
2022-07-26T17:46:44.110Z,9.80
2022-07-26T17:49:12.284Z,10.43
2022-07-26T17:51:41.460Z,9.30
2022-07-26T17:54:09.558Z,9.00
2022-07-26T17:56:36.814Z,8.83
2022-07-26T17:59:04.164Z,7.37
2022-07-26T18:01:31.599Z,8.10
2022-07-26T18:03:59.009Z,8.00
2022-07-26T18:06:26.799Z,8.33
2022-07-26T18:08:54.061Z,8.70
2022-07-26T18:11:21.427Z,9.33
2022-07-26T18:13:48.771Z,8.70
2022-07-26T18:16:16.264Z,9.13
2022-07-26T18:18:43.717Z,8.43
2022-07-26T18:21:11.033Z,8.90
2022-07-26T18:23:45.922Z,9.03
2022-07-26T18:26:24.202Z,8.97
2022-07-26T18:28:51.713Z,8.90
2022-07-26T18:31:19.515Z,9.13
2022-07-26T18:33:47.032Z,8.87
2022-07-26T18:36:14.361Z,9.20
2022-07-26T18:38:41.816Z,9.83
2022-07-26T18:41:10.328Z,8.93
2022-07-26T18:43:38.095Z,8.47
2022-07-26T18:46:06.312Z,8.87
2022-07-26T18:48:33.959Z,9.23
2022-07-26T18:51:01.455Z,9.27
2022-07-26T18:53:29.015Z,9.73
2022-07-26T18:55:57.505Z,9.10
2022-07-26T18:58:25.458Z,9.07
2022-07-26T19:00:55.026Z,8.93
2022-07-26T19:03:22.570Z,9.13
2022-07-26T19:05:50.027Z,8.90
2022-07-26T19:08:17.407Z,8.40
2022-07-26T19:10:44.974Z,8.73
2022-07-26T19:13:12.249Z,8.87
2022-07-26T19:15:39.588Z,8.97
2022-07-26T19:18:12.087Z,9.67
2022-07-26T19:20:39.423Z,9.00
2022-07-26T19:23:06.929Z,9.37
2022-07-26T19:25:34.246Z,9.40
2022-07-26T19:28:01.956Z,9.30
2022-07-26T19:30:29.472Z,9.57
2022-07-26T19:32:56.753Z,9.17
2022-07-26T19:35:24.185Z,9.07
2022-07-26T19:37:51.635Z,9.90
2022-07-26T19:40:19.099Z,9.30
2022-07-26T19:42:47.004Z,9.40
2022-07-26T19:45:14.519Z,9.80
2022-07-26T19:47:41.982Z,9.87
2022-07-26T19:50:10.076Z,10.10
2022-07-26T19:52:37.551Z,10.43
2022-07-26T19:55:05.483Z,10.33
2022-07-26T19:57:32.938Z,10.33
2022-07-26T20:00:02.526Z,9.37
2022-07-26T20:02:41.017Z,9.43
2022-07-26T20:05:10.711Z,10.63
2022-07-26T20:07:38.389Z,11.37
2022-07-26T20:10:06.518Z,11.13
2022-07-26T20:12:34.378Z,11.77
2022-07-26T20:15:01.687Z,11.80
2022-07-26T20:17:33.276Z,11.40
2022-07-26T20:20:00.992Z,11.90
2022-07-26T20:22:28.620Z,11.90
2022-07-26T20:24:56.392Z,11.43
2022-07-26T20:27:24.503Z,11.57
2022-07-26T20:29:52.822Z,12.13
2022-07-26T20:32:21.557Z,11.33
2022-07-26T20:34:48.875Z,11.13
2022-07-26T20:37:16.207Z,10.20
2022-07-26T20:39:43.614Z,11.93
2022-07-26T20:42:13.038Z,11.73
2022-07-26T20:44:48.765Z,11.13
2022-07-26T20:47:16.507Z,11.27
2022-07-26T20:49:44.026Z,11.90
2022-07-26T20:52:11.355Z,12.10
2022-07-26T20:54:38.667Z,11.27
2022-07-26T20:57:06.314Z,11.40
2022-07-26T20:59:34.984Z,11.80
2022-07-26T21:02:02.385Z,12.30
2022-07-26T21:04:30.140Z,12.17
2022-07-26T21:06:57.622Z,12.30
2022-07-26T21:09:30.381Z,11.97
2022-07-26T21:11:57.888Z,12.57
2022-07-26T21:14:25.373Z,12.33
2022-07-26T21:16:53.323Z,12.20
2022-07-26T21:19:20.906Z,11.20
2022-07-26T21:21:48.162Z,12.23
2022-07-26T21:24:15.864Z,11.97
2022-07-26T21:26:43.257Z,12.30
2022-07-26T21:29:10.837Z,12.53
2022-07-26T21:31:38.504Z,12.53
2022-07-26T21:34:05.952Z,14.03
2022-07-26T21:36:33.345Z,12.17
2022-07-26T21:39:00.769Z,12.13
2022-07-26T21:41:28.032Z,12.43
2022-07-26T21:43:55.501Z,12.63
2022-07-26T21:46:23.245Z,12.43
2022-07-26T21:48:51.092Z,12.13
2022-07-26T21:51:19.037Z,12.50
2022-07-26T21:53:46.504Z,12.17
2022-07-26T21:56:13.834Z,10.90
2022-07-26T21:58:41.095Z,14.10
2022-07-26T22:01:11.072Z,13.40
2022-07-26T22:03:40.081Z,13.63
2022-07-26T22:06:08.342Z,13.80
2022-07-26T22:08:36.310Z,12.67
2022-07-26T22:11:04.146Z,13.80
2022-07-26T22:13:31.558Z,14.57
2022-07-26T22:15:59.036Z,12.97
2022-07-26T22:18:26.733Z,15.23
2022-07-26T22:20:55.234Z,13.33
2022-07-26T22:23:31.826Z,14.40
2022-07-26T22:26:04.379Z,13.97
2022-07-26T22:28:33.454Z,12.90
2022-07-26T22:31:01.606Z,12.70
2022-07-26T22:33:29.039Z,13.37
2022-07-26T22:35:56.451Z,12.03
2022-07-26T22:38:23.843Z,13.77
2022-07-26T22:40:51.344Z,14.40
2022-07-26T22:43:18.786Z,13.87
2022-07-26T22:45:46.178Z,12.37
2022-07-26T22:48:13.725Z,13.23
2022-07-26T22:50:41.067Z,13.43
2022-07-26T22:53:08.738Z,12.60
2022-07-26T22:55:36.341Z,13.50
2022-07-26T22:58:03.891Z,12.70
2022-07-26T23:00:31.600Z,12.13
2022-07-26T23:02:59.026Z,12.90
2022-07-26T23:05:45.296Z,12.07
2022-07-26T23:08:36.780Z,12.07
2022-07-26T23:11:02.541Z,12.07
2022-07-26T23:13:29.833Z,11.57
2022-07-26T23:16:00.922Z,12.30
2022-07-26T23:18:30.115Z,11.10
2022-07-26T23:20:58.184Z,11.57
2022-07-26T23:23:29.360Z,10.77
2022-07-26T23:25:59.074Z,10.73
2022-07-26T23:28:36.757Z,11.40
2022-07-26T23:31:07.957Z,10.73
2022-07-26T23:33:53.454Z,10.87
2022-07-26T23:36:28.753Z,10.67
2022-07-26T23:39:00.078Z,11.20
2022-07-26T23:41:28.600Z,11.70
2022-07-26T23:43:56.587Z,10.93
2022-07-26T23:46:24.609Z,11.33
2022-07-26T23:48:52.566Z,11.40
2022-07-26T23:51:20.405Z,10.77
2022-07-26T23:53:47.911Z,11.80
2022-07-26T23:56:15.667Z,10.90
2022-07-26T23:58:43.809Z,11.87
